<?xml version="1.0" encoding="UTF-8" standalone="no" ?>
<gpx xmlns="http://www.topografix.com/GPX/1/1" creator="MapSource 6.11.6" version="1.1" xmlns:xsi="http://www.w3.org/2001/XMLSchema-instance" xsi:schemaLocation="http://www.topografix.com/GPX/1/1 http://www.topografix.com/GPX/1/1/gpx.xsd">

  <metadata>
    <link href="http://www.garmin.com">
      <text>Garmin International</text>
    </link>
    <time>2009-11-20T17:10:28Z</time>
    <bounds maxlat="50.607066" maxlon="6.184937" minlat="50.563301" minlon="6.164660"/>
  </metadata>

  <trk>
    <name>Hohes Venn - Hochmoor über Stege Tour43918</name>
    <extensions>
      <gpxx:TrackExtension xmlns:gpxx="http://www.garmin.com/xmlschemas/GpxExtensions/v3" xmlns:xsi="http://www.w3.org/2001/XMLSchema-instance" xsi:schemaLocation="http://www.garmin.com/xmlschemas/GpxExtensions/v3 http://www.garmin.com/xmlschemas/GpxExtensions/v3/GpxExtensionsv3.xsd">
        <gpxx:DisplayColor>White</gpxx:DisplayColor>
      </gpxx:TrackExtension>
    </extensions>
    <trkseg>
      <trkpt lat="50.567710" lon="6.180403">
        <ele>612.900000</ele>
        <time>2009-11-20T17:49:27Z</time>
      </trkpt>
      <trkpt lat="50.567713" lon="6.180396">
        <ele>612.900000</ele>
        <time>2009-11-20T17:49:27Z</time>
      </trkpt>
      <trkpt lat="50.567639" lon="6.180351">
        <ele>613.100000</ele>
        <time>2009-11-20T17:49:35Z</time>
      </trkpt>
      <trkpt lat="50.567586" lon="6.180382">
        <ele>613.200000</ele>
        <time>2009-11-20T17:49:40Z</time>
      </trkpt>
      <trkpt lat="50.567536" lon="6.180349">
        <ele>613.300000</ele>
        <time>2009-11-20T17:49:45Z</time>
      </trkpt>
      <trkpt lat="50.567550" lon="6.180227">
        <ele>613.300000</ele>
        <time>2009-11-20T17:49:53Z</time>
      </trkpt>
      <trkpt lat="50.567515" lon="6.179895">
        <ele>613.100000</ele>
        <time>2009-11-20T17:50:13Z</time>
      </trkpt>
      <trkpt lat="50.567385" lon="6.179750">
        <ele>613.200000</ele>
        <time>2009-11-20T17:50:29Z</time>
      </trkpt>
      <trkpt lat="50.567384" lon="6.179495">
        <ele>612.900000</ele>
        <time>2009-11-20T17:50:44Z</time>
      </trkpt>
      <trkpt lat="50.567326" lon="6.179312">
        <ele>612.800000</ele>
        <time>2009-11-20T17:50:57Z</time>
      </trkpt>
      <trkpt lat="50.567144" lon="6.179131">
        <ele>613.400000</ele>
        <time>2009-11-20T17:51:18Z</time>
      </trkpt>
      <trkpt lat="50.566862" lon="6.179137">
        <ele>614.600000</ele>
        <time>2009-11-20T17:51:45Z</time>
      </trkpt>
      <trkpt lat="50.566648" lon="6.179396">
        <ele>615.400000</ele>
        <time>2009-11-20T17:52:11Z</time>
      </trkpt>
      <trkpt lat="50.566513" lon="6.179643">
        <ele>615.800000</ele>
        <time>2009-11-20T17:52:31Z</time>
      </trkpt>
      <trkpt lat="50.566463" lon="6.179625">
        <ele>615.800000</ele>
        <time>2009-11-20T17:52:35Z</time>
      </trkpt>
      <trkpt lat="50.566133" lon="6.179397">
        <ele>616.000000</ele>
        <time>2009-11-20T17:53:10Z</time>
      </trkpt>
      <trkpt lat="50.565807" lon="6.179384">
        <ele>616.400000</ele>
        <time>2009-11-20T17:53:41Z</time>
      </trkpt>
      <trkpt lat="50.565687" lon="6.179396">
        <ele>616.700000</ele>
        <time>2009-11-20T17:53:53Z</time>
      </trkpt>
      <trkpt lat="50.565455" lon="6.179262">
        <ele>617.600000</ele>
        <time>2009-11-20T17:54:17Z</time>
      </trkpt>
      <trkpt lat="50.565356" lon="6.179070">
        <ele>618.300000</ele>
        <time>2009-11-20T17:54:32Z</time>
      </trkpt>
      <trkpt lat="50.565217" lon="6.178970">
        <ele>619.100000</ele>
        <time>2009-11-20T17:54:47Z</time>
      </trkpt>
      <trkpt lat="50.564950" lon="6.178927">
        <ele>620.200000</ele>
        <time>2009-11-20T17:55:12Z</time>
      </trkpt>
      <trkpt lat="50.564726" lon="6.178753">
        <ele>620.800000</ele>
        <time>2009-11-20T17:55:36Z</time>
      </trkpt>
      <trkpt lat="50.564559" lon="6.178455">
        <ele>621.100000</ele>
        <time>2009-11-20T17:56:01Z</time>
      </trkpt>
      <trkpt lat="50.564549" lon="6.178000">
        <ele>621.100000</ele>
        <time>2009-11-20T17:56:29Z</time>
      </trkpt>
      <trkpt lat="50.564457" lon="6.177736">
        <ele>621.100000</ele>
        <time>2009-11-20T17:56:47Z</time>
      </trkpt>
      <trkpt lat="50.564384" lon="6.177353">
        <ele>621.000000</ele>
        <time>2009-11-20T17:57:11Z</time>
      </trkpt>
      <trkpt lat="50.564357" lon="6.177138">
        <ele>621.000000</ele>
        <time>2009-11-20T17:57:25Z</time>
      </trkpt>
      <trkpt lat="50.564355" lon="6.177120">
        <ele>621.000000</ele>
        <time>2009-11-20T17:57:26Z</time>
      </trkpt>
      <trkpt lat="50.564343" lon="6.177089">
        <ele>621.000000</ele>
        <time>2009-11-20T17:57:28Z</time>
      </trkpt>
      <trkpt lat="50.564177" lon="6.176830">
        <ele>621.000000</ele>
        <time>2009-11-20T17:57:51Z</time>
      </trkpt>
      <trkpt lat="50.563948" lon="6.176277">
        <ele>621.400000</ele>
        <time>2009-11-20T17:58:31Z</time>
      </trkpt>
      <trkpt lat="50.563718" lon="6.175923">
        <ele>621.900000</ele>
        <time>2009-11-20T17:59:02Z</time>
      </trkpt>
      <trkpt lat="50.563680" lon="6.175813">
        <ele>622.000000</ele>
        <time>2009-11-20T17:59:10Z</time>
      </trkpt>
      <trkpt lat="50.563680" lon="6.175760">
        <ele>622.000000</ele>
        <time>2009-11-20T17:59:13Z</time>
      </trkpt>
      <trkpt lat="50.563541" lon="6.175361">
        <ele>622.500000</ele>
        <time>2009-11-20T17:59:41Z</time>
      </trkpt>
      <trkpt lat="50.563309" lon="6.174076">
        <ele>623.400000</ele>
        <time>2009-11-20T18:01:02Z</time>
      </trkpt>
      <trkpt lat="50.563315" lon="6.174025">
        <ele>623.400000</ele>
        <time>2009-11-20T18:01:05Z</time>
      </trkpt>
      <trkpt lat="50.563310" lon="6.173924">
        <ele>623.400000</ele>
        <time>2009-11-20T18:01:12Z</time>
      </trkpt>
      <trkpt lat="50.563301" lon="6.173676">
        <ele>623.400000</ele>
        <time>2009-11-20T18:01:27Z</time>
      </trkpt>
      <trkpt lat="50.563451" lon="6.173278">
        <ele>622.700000</ele>
        <time>2009-11-20T18:01:55Z</time>
      </trkpt>
      <trkpt lat="50.563634" lon="6.173097">
        <ele>622.000000</ele>
        <time>2009-11-20T18:02:16Z</time>
      </trkpt>
      <trkpt lat="50.563649" lon="6.173073">
        <ele>621.900000</ele>
        <time>2009-11-20T18:02:18Z</time>
      </trkpt>
      <trkpt lat="50.563801" lon="6.172799">
        <ele>621.500000</ele>
        <time>2009-11-20T18:02:40Z</time>
      </trkpt>
      <trkpt lat="50.563895" lon="6.172471">
        <ele>621.300000</ele>
        <time>2009-11-20T18:03:02Z</time>
      </trkpt>
      <trkpt lat="50.564246" lon="6.171960">
        <ele>621.000000</ele>
        <time>2009-11-20T18:03:48Z</time>
      </trkpt>
      <trkpt lat="50.564378" lon="6.171580">
        <ele>621.000000</ele>
        <time>2009-11-20T18:04:15Z</time>
      </trkpt>
      <trkpt lat="50.564409" lon="6.171464">
        <ele>621.000000</ele>
        <time>2009-11-20T18:04:22Z</time>
      </trkpt>
      <trkpt lat="50.564429" lon="6.171260">
        <ele>621.000000</ele>
        <time>2009-11-20T18:04:35Z</time>
      </trkpt>
      <trkpt lat="50.564443" lon="6.171075">
        <ele>620.900000</ele>
        <time>2009-11-20T18:04:46Z</time>
      </trkpt>
      <trkpt lat="50.564445" lon="6.171018">
        <ele>620.900000</ele>
        <time>2009-11-20T18:04:50Z</time>
      </trkpt>
      <trkpt lat="50.564454" lon="6.170852">
        <ele>620.800000</ele>
        <time>2009-11-20T18:05:00Z</time>
      </trkpt>
      <trkpt lat="50.564415" lon="6.170652">
        <ele>621.000000</ele>
        <time>2009-11-20T18:05:13Z</time>
      </trkpt>
      <trkpt lat="50.564338" lon="6.170531">
        <ele>621.000000</ele>
        <time>2009-11-20T18:05:23Z</time>
      </trkpt>
      <trkpt lat="50.564159" lon="6.170224">
        <ele>621.000000</ele>
        <time>2009-11-20T18:05:49Z</time>
      </trkpt>
      <trkpt lat="50.564154" lon="6.169819">
        <ele>621.000000</ele>
        <time>2009-11-20T18:06:13Z</time>
      </trkpt>
      <trkpt lat="50.564222" lon="6.169161">
        <ele>621.000000</ele>
        <time>2009-11-20T18:06:54Z</time>
      </trkpt>
      <trkpt lat="50.564405" lon="6.169131">
        <ele>620.900000</ele>
        <time>2009-11-20T18:07:12Z</time>
      </trkpt>
      <trkpt lat="50.564754" lon="6.169240">
        <ele>619.600000</ele>
        <time>2009-11-20T18:07:46Z</time>
      </trkpt>
      <trkpt lat="50.565152" lon="6.169093">
        <ele>618.900000</ele>
        <time>2009-11-20T18:08:25Z</time>
      </trkpt>
      <trkpt lat="50.565397" lon="6.168886">
        <ele>618.700000</ele>
        <time>2009-11-20T18:08:52Z</time>
      </trkpt>
      <trkpt lat="50.565438" lon="6.168870">
        <ele>618.600000</ele>
        <time>2009-11-20T18:08:56Z</time>
      </trkpt>
      <trkpt lat="50.565504" lon="6.168741">
        <ele>618.600000</ele>
        <time>2009-11-20T18:09:06Z</time>
      </trkpt>
      <trkpt lat="50.565666" lon="6.168144">
        <ele>618.900000</ele>
        <time>2009-11-20T18:09:46Z</time>
      </trkpt>
      <trkpt lat="50.565674" lon="6.167778">
        <ele>619.000000</ele>
        <time>2009-11-20T18:10:08Z</time>
      </trkpt>
      <trkpt lat="50.565626" lon="6.167512">
        <ele>619.100000</ele>
        <time>2009-11-20T18:10:25Z</time>
      </trkpt>
      <trkpt lat="50.565637" lon="6.167279">
        <ele>619.100000</ele>
        <time>2009-11-20T18:10:39Z</time>
      </trkpt>
      <trkpt lat="50.565539" lon="6.166922">
        <ele>619.200000</ele>
        <time>2009-11-20T18:11:03Z</time>
      </trkpt>
      <trkpt lat="50.565460" lon="6.166308">
        <ele>619.300000</ele>
        <time>2009-11-20T18:11:41Z</time>
      </trkpt>
      <trkpt lat="50.565374" lon="6.166045">
        <ele>619.300000</ele>
        <time>2009-11-20T18:12:00Z</time>
      </trkpt>
      <trkpt lat="50.565302" lon="6.165730">
        <ele>618.900000</ele>
        <time>2009-11-20T18:12:20Z</time>
      </trkpt>
      <trkpt lat="50.565469" lon="6.165458">
        <ele>618.700000</ele>
        <time>2009-11-20T18:12:43Z</time>
      </trkpt>
      <trkpt lat="50.566049" lon="6.165505">
        <ele>619.000000</ele>
        <time>2009-11-20T18:13:39Z</time>
      </trkpt>
      <trkpt lat="50.566369" lon="6.165522">
        <ele>618.800000</ele>
        <time>2009-11-20T18:14:10Z</time>
      </trkpt>
      <trkpt lat="50.567015" lon="6.165545">
        <ele>617.500000</ele>
        <time>2009-11-20T18:15:12Z</time>
      </trkpt>
      <trkpt lat="50.567282" lon="6.165538">
        <ele>617.100000</ele>
        <time>2009-11-20T18:15:38Z</time>
      </trkpt>
      <trkpt lat="50.567652" lon="6.165588">
        <ele>617.000000</ele>
        <time>2009-11-20T18:16:13Z</time>
      </trkpt>
      <trkpt lat="50.568377" lon="6.165574">
        <ele>615.100000</ele>
        <time>2009-11-20T18:17:23Z</time>
      </trkpt>
      <trkpt lat="50.568676" lon="6.165587">
        <ele>614.000000</ele>
        <time>2009-11-20T18:17:52Z</time>
      </trkpt>
      <trkpt lat="50.569069" lon="6.165659">
        <ele>613.100000</ele>
        <time>2009-11-20T18:18:30Z</time>
      </trkpt>
      <trkpt lat="50.569594" lon="6.165727">
        <ele>612.700000</ele>
        <time>2009-11-20T18:19:21Z</time>
      </trkpt>
      <trkpt lat="50.570412" lon="6.165790">
        <ele>611.000000</ele>
        <time>2009-11-20T18:20:39Z</time>
      </trkpt>
      <trkpt lat="50.570570" lon="6.165902">
        <ele>611.000000</ele>
        <time>2009-11-20T18:20:56Z</time>
      </trkpt>
      <trkpt lat="50.570835" lon="6.165857">
        <ele>610.900000</ele>
        <time>2009-11-20T18:21:22Z</time>
      </trkpt>
      <trkpt lat="50.571023" lon="6.165865">
        <ele>610.500000</ele>
        <time>2009-11-20T18:21:40Z</time>
      </trkpt>
      <trkpt lat="50.571195" lon="6.165819">
        <ele>610.100000</ele>
        <time>2009-11-20T18:21:56Z</time>
      </trkpt>
      <trkpt lat="50.571388" lon="6.165869">
        <ele>609.800000</ele>
        <time>2009-11-20T18:22:15Z</time>
      </trkpt>
      <trkpt lat="50.571601" lon="6.165887">
        <ele>609.300000</ele>
        <time>2009-11-20T18:22:36Z</time>
      </trkpt>
      <trkpt lat="50.571787" lon="6.165868">
        <ele>608.800000</ele>
        <time>2009-11-20T18:22:54Z</time>
      </trkpt>
      <trkpt lat="50.571975" lon="6.165949">
        <ele>608.400000</ele>
        <time>2009-11-20T18:23:12Z</time>
      </trkpt>
      <trkpt lat="50.572278" lon="6.165994">
        <ele>607.700000</ele>
        <time>2009-11-20T18:23:42Z</time>
      </trkpt>
      <trkpt lat="50.572447" lon="6.166000">
        <ele>607.500000</ele>
        <time>2009-11-20T18:23:58Z</time>
      </trkpt>
      <trkpt lat="50.572939" lon="6.166084">
        <ele>606.600000</ele>
        <time>2009-11-20T18:24:46Z</time>
      </trkpt>
      <trkpt lat="50.573050" lon="6.166054">
        <ele>606.300000</ele>
        <time>2009-11-20T18:24:56Z</time>
      </trkpt>
      <trkpt lat="50.573601" lon="6.166133">
        <ele>604.500000</ele>
        <time>2009-11-20T18:25:50Z</time>
      </trkpt>
      <trkpt lat="50.573816" lon="6.166089">
        <ele>603.200000</ele>
        <time>2009-11-20T18:26:11Z</time>
      </trkpt>
      <trkpt lat="50.573974" lon="6.166090">
        <ele>602.300000</ele>
        <time>2009-11-20T18:26:26Z</time>
      </trkpt>
      <trkpt lat="50.574161" lon="6.166048">
        <ele>601.300000</ele>
        <time>2009-11-20T18:26:44Z</time>
      </trkpt>
      <trkpt lat="50.574294" lon="6.166051">
        <ele>600.700000</ele>
        <time>2009-11-20T18:26:57Z</time>
      </trkpt>
      <trkpt lat="50.574709" lon="6.166104">
        <ele>599.400000</ele>
        <time>2009-11-20T18:27:37Z</time>
      </trkpt>
      <trkpt lat="50.574862" lon="6.166082">
        <ele>598.700000</ele>
        <time>2009-11-20T18:27:52Z</time>
      </trkpt>
      <trkpt lat="50.574996" lon="6.166118">
        <ele>598.300000</ele>
        <time>2009-11-20T18:28:05Z</time>
      </trkpt>
      <trkpt lat="50.575069" lon="6.166070">
        <ele>597.800000</ele>
        <time>2009-11-20T18:28:12Z</time>
      </trkpt>
      <trkpt lat="50.575231" lon="6.166057">
        <ele>596.600000</ele>
        <time>2009-11-20T18:28:28Z</time>
      </trkpt>
      <trkpt lat="50.575786" lon="6.166095">
        <ele>591.300000</ele>
        <time>2009-11-20T18:29:21Z</time>
      </trkpt>
      <trkpt lat="50.576312" lon="6.166142">
        <ele>587.500000</ele>
        <time>2009-11-20T18:30:12Z</time>
      </trkpt>
      <trkpt lat="50.576998" lon="6.166180">
        <ele>584.000000</ele>
        <time>2009-11-20T18:31:18Z</time>
      </trkpt>
      <trkpt lat="50.577312" lon="6.166228">
        <ele>581.000000</ele>
        <time>2009-11-20T18:31:48Z</time>
      </trkpt>
      <trkpt lat="50.577510" lon="6.166231">
        <ele>578.900000</ele>
        <time>2009-11-20T18:32:07Z</time>
      </trkpt>
      <trkpt lat="50.577744" lon="6.166161">
        <ele>576.400000</ele>
        <time>2009-11-20T18:32:30Z</time>
      </trkpt>
      <trkpt lat="50.577846" lon="6.166201">
        <ele>575.700000</ele>
        <time>2009-11-20T18:32:40Z</time>
      </trkpt>
      <trkpt lat="50.578132" lon="6.166218">
        <ele>574.500000</ele>
        <time>2009-11-20T18:33:08Z</time>
      </trkpt>
      <trkpt lat="50.578271" lon="6.166186">
        <ele>574.000000</ele>
        <time>2009-11-20T18:33:21Z</time>
      </trkpt>
      <trkpt lat="50.578397" lon="6.166191">
        <ele>573.700000</ele>
        <time>2009-11-20T18:33:33Z</time>
      </trkpt>
      <trkpt lat="50.578507" lon="6.166223">
        <ele>573.500000</ele>
        <time>2009-11-20T18:33:44Z</time>
      </trkpt>
      <trkpt lat="50.578609" lon="6.166177">
        <ele>573.200000</ele>
        <time>2009-11-20T18:33:54Z</time>
      </trkpt>
      <trkpt lat="50.578832" lon="6.166207">
        <ele>572.800000</ele>
        <time>2009-11-20T18:34:16Z</time>
      </trkpt>
      <trkpt lat="50.579014" lon="6.166282">
        <ele>572.300000</ele>
        <time>2009-11-20T18:34:34Z</time>
      </trkpt>
      <trkpt lat="50.579344" lon="6.166283">
        <ele>570.700000</ele>
        <time>2009-11-20T18:35:06Z</time>
      </trkpt>
      <trkpt lat="50.579863" lon="6.166323">
        <ele>568.700000</ele>
        <time>2009-11-20T18:35:56Z</time>
      </trkpt>
      <trkpt lat="50.580043" lon="6.166348">
        <ele>568.300000</ele>
        <time>2009-11-20T18:36:13Z</time>
      </trkpt>
      <trkpt lat="50.580209" lon="6.166336">
        <ele>567.900000</ele>
        <time>2009-11-20T18:36:29Z</time>
      </trkpt>
      <trkpt lat="50.580554" lon="6.166363">
        <ele>567.000000</ele>
        <time>2009-11-20T18:37:02Z</time>
      </trkpt>
      <trkpt lat="50.580738" lon="6.166376">
        <ele>566.500000</ele>
        <time>2009-11-20T18:37:20Z</time>
      </trkpt>
      <trkpt lat="50.580854" lon="6.166317">
        <ele>565.900000</ele>
        <time>2009-11-20T18:37:32Z</time>
      </trkpt>
      <trkpt lat="50.581390" lon="6.166318">
        <ele>564.500000</ele>
        <time>2009-11-20T18:38:23Z</time>
      </trkpt>
      <trkpt lat="50.581680" lon="6.166407">
        <ele>564.400000</ele>
        <time>2009-11-20T18:38:52Z</time>
      </trkpt>
      <trkpt lat="50.581988" lon="6.166410">
        <ele>564.000000</ele>
        <time>2009-11-20T18:39:21Z</time>
      </trkpt>
      <trkpt lat="50.582121" lon="6.166479">
        <ele>563.900000</ele>
        <time>2009-11-20T18:39:35Z</time>
      </trkpt>
      <trkpt lat="50.582423" lon="6.166512">
        <ele>563.200000</ele>
        <time>2009-11-20T18:40:04Z</time>
      </trkpt>
      <trkpt lat="50.582586" lon="6.166460">
        <ele>562.700000</ele>
        <time>2009-11-20T18:40:20Z</time>
      </trkpt>
      <trkpt lat="50.582763" lon="6.166461">
        <ele>561.900000</ele>
        <time>2009-11-20T18:40:37Z</time>
      </trkpt>
      <trkpt lat="50.582864" lon="6.166509">
        <ele>561.500000</ele>
        <time>2009-11-20T18:40:47Z</time>
      </trkpt>
      <trkpt lat="50.583211" lon="6.166560">
        <ele>560.700000</ele>
        <time>2009-11-20T18:41:21Z</time>
      </trkpt>
      <trkpt lat="50.583354" lon="6.166555">
        <ele>560.400000</ele>
        <time>2009-11-20T18:41:34Z</time>
      </trkpt>
      <trkpt lat="50.583444" lon="6.166616">
        <ele>560.300000</ele>
        <time>2009-11-20T18:41:44Z</time>
      </trkpt>
      <trkpt lat="50.583580" lon="6.166563">
        <ele>559.900000</ele>
        <time>2009-11-20T18:41:57Z</time>
      </trkpt>
      <trkpt lat="50.583704" lon="6.166560">
        <ele>559.600000</ele>
        <time>2009-11-20T18:42:09Z</time>
      </trkpt>
      <trkpt lat="50.583790" lon="6.166625">
        <ele>559.600000</ele>
        <time>2009-11-20T18:42:18Z</time>
      </trkpt>
      <trkpt lat="50.584032" lon="6.166583">
        <ele>559.000000</ele>
        <time>2009-11-20T18:42:42Z</time>
      </trkpt>
      <trkpt lat="50.584136" lon="6.166546">
        <ele>558.700000</ele>
        <time>2009-11-20T18:42:52Z</time>
      </trkpt>
      <trkpt lat="50.584281" lon="6.166573">
        <ele>558.400000</ele>
        <time>2009-11-20T18:43:06Z</time>
      </trkpt>
      <trkpt lat="50.584509" lon="6.166555">
        <ele>557.400000</ele>
        <time>2009-11-20T18:43:28Z</time>
      </trkpt>
      <trkpt lat="50.584614" lon="6.166583">
        <ele>557.000000</ele>
        <time>2009-11-20T18:43:38Z</time>
      </trkpt>
      <trkpt lat="50.584938" lon="6.166559">
        <ele>555.500000</ele>
        <time>2009-11-20T18:44:10Z</time>
      </trkpt>
      <trkpt lat="50.585069" lon="6.166581">
        <ele>555.000000</ele>
        <time>2009-11-20T18:44:22Z</time>
      </trkpt>
      <trkpt lat="50.585241" lon="6.166581">
        <ele>554.400000</ele>
        <time>2009-11-20T18:44:39Z</time>
      </trkpt>
      <trkpt lat="50.585474" lon="6.166616">
        <ele>553.700000</ele>
        <time>2009-11-20T18:45:01Z</time>
      </trkpt>
      <trkpt lat="50.585748" lon="6.166583">
        <ele>553.000000</ele>
        <time>2009-11-20T18:45:28Z</time>
      </trkpt>
      <trkpt lat="50.586060" lon="6.166624">
        <ele>552.200000</ele>
        <time>2009-11-20T18:45:58Z</time>
      </trkpt>
      <trkpt lat="50.586189" lon="6.166671">
        <ele>551.700000</ele>
        <time>2009-11-20T18:46:11Z</time>
      </trkpt>
      <trkpt lat="50.586324" lon="6.166666">
        <ele>551.100000</ele>
        <time>2009-11-20T18:46:24Z</time>
      </trkpt>
      <trkpt lat="50.586641" lon="6.166723">
        <ele>549.400000</ele>
        <time>2009-11-20T18:46:54Z</time>
      </trkpt>
      <trkpt lat="50.586968" lon="6.166748">
        <ele>547.400000</ele>
        <time>2009-11-20T18:47:26Z</time>
      </trkpt>
      <trkpt lat="50.587076" lon="6.166778">
        <ele>546.900000</ele>
        <time>2009-11-20T18:47:36Z</time>
      </trkpt>
      <trkpt lat="50.587432" lon="6.166748">
        <ele>545.400000</ele>
        <time>2009-11-20T18:48:11Z</time>
      </trkpt>
      <trkpt lat="50.587730" lon="6.166848">
        <ele>544.800000</ele>
        <time>2009-11-20T18:48:40Z</time>
      </trkpt>
      <trkpt lat="50.588315" lon="6.166835">
        <ele>541.000000</ele>
        <time>2009-11-20T18:49:36Z</time>
      </trkpt>
      <trkpt lat="50.588715" lon="6.166880">
        <ele>538.900000</ele>
        <time>2009-11-20T18:50:15Z</time>
      </trkpt>
      <trkpt lat="50.588895" lon="6.166945">
        <ele>538.700000</ele>
        <time>2009-11-20T18:50:32Z</time>
      </trkpt>
      <trkpt lat="50.589141" lon="6.166888">
        <ele>538.200000</ele>
        <time>2009-11-20T18:50:56Z</time>
      </trkpt>
      <trkpt lat="50.589287" lon="6.166882">
        <ele>538.200000</ele>
        <time>2009-11-20T18:51:10Z</time>
      </trkpt>
      <trkpt lat="50.589706" lon="6.166921">
        <ele>537.400000</ele>
        <time>2009-11-20T18:51:51Z</time>
      </trkpt>
      <trkpt lat="50.590004" lon="6.167000">
        <ele>536.200000</ele>
        <time>2009-11-20T18:52:20Z</time>
      </trkpt>
      <trkpt lat="50.590156" lon="6.166908">
        <ele>534.900000</ele>
        <time>2009-11-20T18:52:36Z</time>
      </trkpt>
      <trkpt lat="50.590275" lon="6.166904">
        <ele>534.100000</ele>
        <time>2009-11-20T18:52:47Z</time>
      </trkpt>
      <trkpt lat="50.590496" lon="6.166962">
        <ele>533.000000</ele>
        <time>2009-11-20T18:53:09Z</time>
      </trkpt>
      <trkpt lat="50.590605" lon="6.166987">
        <ele>532.600000</ele>
        <time>2009-11-20T18:53:19Z</time>
      </trkpt>
      <trkpt lat="50.590794" lon="6.167034">
        <ele>532.000000</ele>
        <time>2009-11-20T18:53:38Z</time>
      </trkpt>
      <trkpt lat="50.591082" lon="6.167078">
        <ele>531.400000</ele>
        <time>2009-11-20T18:54:05Z</time>
      </trkpt>
      <trkpt lat="50.591091" lon="6.167063">
        <ele>531.300000</ele>
        <time>2009-11-20T18:54:07Z</time>
      </trkpt>
      <trkpt lat="50.591046" lon="6.167145">
        <ele>531.700000</ele>
        <time>2009-11-20T18:54:13Z</time>
      </trkpt>
      <trkpt lat="50.591079" lon="6.167439">
        <ele>532.500000</ele>
        <time>2009-11-20T18:54:31Z</time>
      </trkpt>
      <trkpt lat="50.591138" lon="6.167830">
        <ele>533.500000</ele>
        <time>2009-11-20T18:54:56Z</time>
      </trkpt>
      <trkpt lat="50.591197" lon="6.168082">
        <ele>534.000000</ele>
        <time>2009-11-20T18:55:12Z</time>
      </trkpt>
      <trkpt lat="50.591437" lon="6.168617">
        <ele>532.800000</ele>
        <time>2009-11-20T18:55:52Z</time>
      </trkpt>
      <trkpt lat="50.591485" lon="6.168691">
        <ele>532.600000</ele>
        <time>2009-11-20T18:55:59Z</time>
      </trkpt>
      <trkpt lat="50.591503" lon="6.168988">
        <ele>533.100000</ele>
        <time>2009-11-20T18:56:17Z</time>
      </trkpt>
      <trkpt lat="50.591554" lon="6.169103">
        <ele>533.300000</ele>
        <time>2009-11-20T18:56:26Z</time>
      </trkpt>
      <trkpt lat="50.591616" lon="6.168992">
        <ele>532.800000</ele>
        <time>2009-11-20T18:56:35Z</time>
      </trkpt>
      <trkpt lat="50.591663" lon="6.168829">
        <ele>532.300000</ele>
        <time>2009-11-20T18:56:46Z</time>
      </trkpt>
      <trkpt lat="50.591720" lon="6.168815">
        <ele>532.100000</ele>
        <time>2009-11-20T18:56:51Z</time>
      </trkpt>
      <trkpt lat="50.591787" lon="6.168844">
        <ele>532.000000</ele>
        <time>2009-11-20T18:56:58Z</time>
      </trkpt>
      <trkpt lat="50.591746" lon="6.168816">
        <ele>532.100000</ele>
        <time>2009-11-20T18:57:02Z</time>
      </trkpt>
      <trkpt lat="50.591775" lon="6.168731">
        <ele>531.900000</ele>
        <time>2009-11-20T18:57:08Z</time>
      </trkpt>
      <trkpt lat="50.591863" lon="6.168861">
        <ele>531.900000</ele>
        <time>2009-11-20T18:57:20Z</time>
      </trkpt>
      <trkpt lat="50.591970" lon="6.168870">
        <ele>531.700000</ele>
        <time>2009-11-20T18:57:30Z</time>
      </trkpt>
      <trkpt lat="50.592048" lon="6.168821">
        <ele>531.400000</ele>
        <time>2009-11-20T18:57:38Z</time>
      </trkpt>
      <trkpt lat="50.592143" lon="6.168834">
        <ele>531.300000</ele>
        <time>2009-11-20T18:57:47Z</time>
      </trkpt>
      <trkpt lat="50.592270" lon="6.168823">
        <ele>531.000000</ele>
        <time>2009-11-20T18:57:59Z</time>
      </trkpt>
      <trkpt lat="50.592384" lon="6.168808">
        <ele>530.700000</ele>
        <time>2009-11-20T18:58:10Z</time>
      </trkpt>
      <trkpt lat="50.592565" lon="6.168845">
        <ele>530.500000</ele>
        <time>2009-11-20T18:58:28Z</time>
      </trkpt>
      <trkpt lat="50.592748" lon="6.168782">
        <ele>530.200000</ele>
        <time>2009-11-20T18:58:46Z</time>
      </trkpt>
      <trkpt lat="50.592873" lon="6.168635">
        <ele>529.800000</ele>
        <time>2009-11-20T18:59:01Z</time>
      </trkpt>
      <trkpt lat="50.592934" lon="6.168514">
        <ele>529.500000</ele>
        <time>2009-11-20T18:59:10Z</time>
      </trkpt>
      <trkpt lat="50.593083" lon="6.167855">
        <ele>528.100000</ele>
        <time>2009-11-20T18:59:53Z</time>
      </trkpt>
      <trkpt lat="50.593118" lon="6.167413">
        <ele>527.500000</ele>
        <time>2009-11-20T19:00:20Z</time>
      </trkpt>
      <trkpt lat="50.593205" lon="6.166750">
        <ele>526.400000</ele>
        <time>2009-11-20T19:01:02Z</time>
      </trkpt>
      <trkpt lat="50.593315" lon="6.166431">
        <ele>525.800000</ele>
        <time>2009-11-20T19:01:24Z</time>
      </trkpt>
      <trkpt lat="50.593410" lon="6.166352">
        <ele>526.000000</ele>
        <time>2009-11-20T19:01:34Z</time>
      </trkpt>
      <trkpt lat="50.593693" lon="6.166200">
        <ele>527.200000</ele>
        <time>2009-11-20T19:02:03Z</time>
      </trkpt>
      <trkpt lat="50.593907" lon="6.166053">
        <ele>528.400000</ele>
        <time>2009-11-20T19:02:25Z</time>
      </trkpt>
      <trkpt lat="50.594186" lon="6.165928">
        <ele>529.800000</ele>
        <time>2009-11-20T19:02:53Z</time>
      </trkpt>
      <trkpt lat="50.594511" lon="6.165720">
        <ele>531.300000</ele>
        <time>2009-11-20T19:03:27Z</time>
      </trkpt>
      <trkpt lat="50.594610" lon="6.165693">
        <ele>531.800000</ele>
        <time>2009-11-20T19:03:37Z</time>
      </trkpt>
      <trkpt lat="50.594761" lon="6.165604">
        <ele>532.800000</ele>
        <time>2009-11-20T19:03:52Z</time>
      </trkpt>
      <trkpt lat="50.595052" lon="6.165470">
        <ele>534.700000</ele>
        <time>2009-11-20T19:04:21Z</time>
      </trkpt>
      <trkpt lat="50.595458" lon="6.165329">
        <ele>537.400000</ele>
        <time>2009-11-20T19:05:01Z</time>
      </trkpt>
      <trkpt lat="50.595728" lon="6.165120">
        <ele>538.500000</ele>
        <time>2009-11-20T19:05:30Z</time>
      </trkpt>
      <trkpt lat="50.595845" lon="6.165045">
        <ele>538.700000</ele>
        <time>2009-11-20T19:05:42Z</time>
      </trkpt>
      <trkpt lat="50.595966" lon="6.165031">
        <ele>539.000000</ele>
        <time>2009-11-20T19:05:54Z</time>
      </trkpt>
      <trkpt lat="50.596046" lon="6.164965">
        <ele>539.100000</ele>
        <time>2009-11-20T19:06:03Z</time>
      </trkpt>
      <trkpt lat="50.596146" lon="6.164948">
        <ele>539.400000</ele>
        <time>2009-11-20T19:06:12Z</time>
      </trkpt>
      <trkpt lat="50.596270" lon="6.164959">
        <ele>539.700000</ele>
        <time>2009-11-20T19:06:24Z</time>
      </trkpt>
      <trkpt lat="50.596418" lon="6.164931">
        <ele>540.000000</ele>
        <time>2009-11-20T19:06:39Z</time>
      </trkpt>
      <trkpt lat="50.596583" lon="6.164876">
        <ele>540.400000</ele>
        <time>2009-11-20T19:06:55Z</time>
      </trkpt>
      <trkpt lat="50.596820" lon="6.164743">
        <ele>540.600000</ele>
        <time>2009-11-20T19:07:19Z</time>
      </trkpt>
      <trkpt lat="50.596935" lon="6.164729">
        <ele>540.700000</ele>
        <time>2009-11-20T19:07:30Z</time>
      </trkpt>
      <trkpt lat="50.597105" lon="6.164671">
        <ele>540.600000</ele>
        <time>2009-11-20T19:07:47Z</time>
      </trkpt>
      <trkpt lat="50.597238" lon="6.164694">
        <ele>540.600000</ele>
        <time>2009-11-20T19:08:00Z</time>
      </trkpt>
      <trkpt lat="50.597653" lon="6.164660">
        <ele>539.700000</ele>
        <time>2009-11-20T19:08:40Z</time>
      </trkpt>
      <trkpt lat="50.597936" lon="6.164751">
        <ele>539.200000</ele>
        <time>2009-11-20T19:09:08Z</time>
      </trkpt>
      <trkpt lat="50.599009" lon="6.164950">
        <ele>536.900000</ele>
        <time>2009-11-20T19:10:52Z</time>
      </trkpt>
      <trkpt lat="50.599528" lon="6.165074">
        <ele>535.400000</ele>
        <time>2009-11-20T19:11:42Z</time>
      </trkpt>
      <trkpt lat="50.600255" lon="6.165218">
        <ele>534.100000</ele>
        <time>2009-11-20T19:12:53Z</time>
      </trkpt>
      <trkpt lat="50.600780" lon="6.165284">
        <ele>532.900000</ele>
        <time>2009-11-20T19:13:43Z</time>
      </trkpt>
      <trkpt lat="50.601014" lon="6.165287">
        <ele>532.300000</ele>
        <time>2009-11-20T19:14:06Z</time>
      </trkpt>
      <trkpt lat="50.601480" lon="6.165448">
        <ele>532.100000</ele>
        <time>2009-11-20T19:14:52Z</time>
      </trkpt>
      <trkpt lat="50.601663" lon="6.165498">
        <ele>532.200000</ele>
        <time>2009-11-20T19:15:09Z</time>
      </trkpt>
      <trkpt lat="50.601725" lon="6.165512">
        <ele>532.200000</ele>
        <time>2009-11-20T19:15:15Z</time>
      </trkpt>
      <trkpt lat="50.601732" lon="6.165430">
        <ele>532.100000</ele>
        <time>2009-11-20T19:15:21Z</time>
      </trkpt>
      <trkpt lat="50.601869" lon="6.165556">
        <ele>532.300000</ele>
        <time>2009-11-20T19:15:36Z</time>
      </trkpt>
      <trkpt lat="50.602119" lon="6.165529">
        <ele>532.100000</ele>
        <time>2009-11-20T19:16:00Z</time>
      </trkpt>
      <trkpt lat="50.602364" lon="6.165604">
        <ele>531.700000</ele>
        <time>2009-11-20T19:16:24Z</time>
      </trkpt>
      <trkpt lat="50.602951" lon="6.165703">
        <ele>530.600000</ele>
        <time>2009-11-20T19:17:21Z</time>
      </trkpt>
      <trkpt lat="50.603392" lon="6.165748">
        <ele>530.300000</ele>
        <time>2009-11-20T19:18:03Z</time>
      </trkpt>
      <trkpt lat="50.603586" lon="6.165798">
        <ele>530.100000</ele>
        <time>2009-11-20T19:18:22Z</time>
      </trkpt>
      <trkpt lat="50.603929" lon="6.165800">
        <ele>529.500000</ele>
        <time>2009-11-20T19:18:55Z</time>
      </trkpt>
      <trkpt lat="50.604068" lon="6.165782">
        <ele>529.200000</ele>
        <time>2009-11-20T19:19:08Z</time>
      </trkpt>
      <trkpt lat="50.604484" lon="6.165818">
        <ele>527.700000</ele>
        <time>2009-11-20T19:19:49Z</time>
      </trkpt>
      <trkpt lat="50.604694" lon="6.165857">
        <ele>527.000000</ele>
        <time>2009-11-20T19:20:09Z</time>
      </trkpt>
      <trkpt lat="50.604758" lon="6.165850">
        <ele>526.700000</ele>
        <time>2009-11-20T19:20:15Z</time>
      </trkpt>
      <trkpt lat="50.604872" lon="6.165866">
        <ele>526.500000</ele>
        <time>2009-11-20T19:20:26Z</time>
      </trkpt>
      <trkpt lat="50.605258" lon="6.165961">
        <ele>525.700000</ele>
        <time>2009-11-20T19:21:04Z</time>
      </trkpt>
      <trkpt lat="50.605464" lon="6.165946">
        <ele>525.100000</ele>
        <time>2009-11-20T19:21:23Z</time>
      </trkpt>
      <trkpt lat="50.605939" lon="6.165954">
        <ele>523.200000</ele>
        <time>2009-11-20T19:22:09Z</time>
      </trkpt>
      <trkpt lat="50.606047" lon="6.165912">
        <ele>522.700000</ele>
        <time>2009-11-20T19:22:20Z</time>
      </trkpt>
      <trkpt lat="50.606338" lon="6.166019">
        <ele>521.400000</ele>
        <time>2009-11-20T19:22:49Z</time>
      </trkpt>
      <trkpt lat="50.606540" lon="6.166013">
        <ele>520.700000</ele>
        <time>2009-11-20T19:23:08Z</time>
      </trkpt>
      <trkpt lat="50.606722" lon="6.166019">
        <ele>520.300000</ele>
        <time>2009-11-20T19:23:26Z</time>
      </trkpt>
      <trkpt lat="50.606862" lon="6.166110">
        <ele>520.000000</ele>
        <time>2009-11-20T19:23:40Z</time>
      </trkpt>
      <trkpt lat="50.606949" lon="6.166128">
        <ele>519.900000</ele>
        <time>2009-11-20T19:23:49Z</time>
      </trkpt>
      <trkpt lat="50.606994" lon="6.166157">
        <ele>519.800000</ele>
        <time>2009-11-20T19:23:53Z</time>
      </trkpt>
      <trkpt lat="50.607022" lon="6.166150">
        <ele>519.800000</ele>
        <time>2009-11-20T19:23:56Z</time>
      </trkpt>
      <trkpt lat="50.607066" lon="6.166299">
        <ele>519.600000</ele>
        <time>2009-11-20T19:24:06Z</time>
      </trkpt>
      <trkpt lat="50.606989" lon="6.166419">
        <ele>519.700000</ele>
        <time>2009-11-20T19:24:16Z</time>
      </trkpt>
      <trkpt lat="50.606413" lon="6.166888">
        <ele>521.200000</ele>
        <time>2009-11-20T19:25:19Z</time>
      </trkpt>
      <trkpt lat="50.605719" lon="6.167476">
        <ele>524.400000</ele>
        <time>2009-11-20T19:26:35Z</time>
      </trkpt>
      <trkpt lat="50.605226" lon="6.167960">
        <ele>525.800000</ele>
        <time>2009-11-20T19:27:30Z</time>
      </trkpt>
      <trkpt lat="50.605073" lon="6.168059">
        <ele>526.100000</ele>
        <time>2009-11-20T19:27:46Z</time>
      </trkpt>
      <trkpt lat="50.604768" lon="6.168478">
        <ele>526.900000</ele>
        <time>2009-11-20T19:28:25Z</time>
      </trkpt>
      <trkpt lat="50.604639" lon="6.168590">
        <ele>527.500000</ele>
        <time>2009-11-20T19:28:39Z</time>
      </trkpt>
      <trkpt lat="50.604548" lon="6.168721">
        <ele>527.900000</ele>
        <time>2009-11-20T19:28:51Z</time>
      </trkpt>
      <trkpt lat="50.604550" lon="6.168842">
        <ele>527.900000</ele>
        <time>2009-11-20T19:28:59Z</time>
      </trkpt>
      <trkpt lat="50.604464" lon="6.168842">
        <ele>528.300000</ele>
        <time>2009-11-20T19:29:07Z</time>
      </trkpt>
      <trkpt lat="50.604420" lon="6.168908">
        <ele>528.500000</ele>
        <time>2009-11-20T19:29:13Z</time>
      </trkpt>
      <trkpt lat="50.604260" lon="6.169023">
        <ele>529.500000</ele>
        <time>2009-11-20T19:29:30Z</time>
      </trkpt>
      <trkpt lat="50.604094" lon="6.169202">
        <ele>530.600000</ele>
        <time>2009-11-20T19:29:49Z</time>
      </trkpt>
      <trkpt lat="50.603811" lon="6.169375">
        <ele>532.100000</ele>
        <time>2009-11-20T19:30:18Z</time>
      </trkpt>
      <trkpt lat="50.603718" lon="6.169388">
        <ele>532.400000</ele>
        <time>2009-11-20T19:30:27Z</time>
      </trkpt>
      <trkpt lat="50.603670" lon="6.169544">
        <ele>532.500000</ele>
        <time>2009-11-20T19:30:38Z</time>
      </trkpt>
      <trkpt lat="50.603541" lon="6.169588">
        <ele>532.800000</ele>
        <time>2009-11-20T19:30:51Z</time>
      </trkpt>
      <trkpt lat="50.603365" lon="6.169696">
        <ele>533.500000</ele>
        <time>2009-11-20T19:31:09Z</time>
      </trkpt>
      <trkpt lat="50.603181" lon="6.169854">
        <ele>534.300000</ele>
        <time>2009-11-20T19:31:29Z</time>
      </trkpt>
      <trkpt lat="50.602788" lon="6.170275">
        <ele>536.200000</ele>
        <time>2009-11-20T19:32:15Z</time>
      </trkpt>
      <trkpt lat="50.602405" lon="6.170568">
        <ele>537.500000</ele>
        <time>2009-11-20T19:32:56Z</time>
      </trkpt>
      <trkpt lat="50.601934" lon="6.171011">
        <ele>538.700000</ele>
        <time>2009-11-20T19:33:48Z</time>
      </trkpt>
      <trkpt lat="50.601589" lon="6.171311">
        <ele>540.300000</ele>
        <time>2009-11-20T19:34:26Z</time>
      </trkpt>
      <trkpt lat="50.601113" lon="6.171754">
        <ele>543.100000</ele>
        <time>2009-11-20T19:35:19Z</time>
      </trkpt>
      <trkpt lat="50.601079" lon="6.171852">
        <ele>543.500000</ele>
        <time>2009-11-20T19:35:26Z</time>
      </trkpt>
      <trkpt lat="50.601133" lon="6.171893">
        <ele>543.400000</ele>
        <time>2009-11-20T19:35:32Z</time>
      </trkpt>
      <trkpt lat="50.601143" lon="6.171870">
        <ele>543.300000</ele>
        <time>2009-11-20T19:35:34Z</time>
      </trkpt>
      <trkpt lat="50.601174" lon="6.171882">
        <ele>543.100000</ele>
        <time>2009-11-20T19:35:37Z</time>
      </trkpt>
      <trkpt lat="50.601209" lon="6.171926">
        <ele>543.000000</ele>
        <time>2009-11-20T19:35:41Z</time>
      </trkpt>
      <trkpt lat="50.601079" lon="6.171877">
        <ele>543.600000</ele>
        <time>2009-11-20T19:35:54Z</time>
      </trkpt>
      <trkpt lat="50.601322" lon="6.171912">
        <ele>542.400000</ele>
        <time>2009-11-20T19:36:17Z</time>
      </trkpt>
      <trkpt lat="50.601204" lon="6.171916">
        <ele>543.000000</ele>
        <time>2009-11-20T19:36:29Z</time>
      </trkpt>
      <trkpt lat="50.601172" lon="6.171966">
        <ele>543.300000</ele>
        <time>2009-11-20T19:36:33Z</time>
      </trkpt>
      <trkpt lat="50.601145" lon="6.171812">
        <ele>543.100000</ele>
        <time>2009-11-20T19:36:43Z</time>
      </trkpt>
      <trkpt lat="50.601064" lon="6.171751">
        <ele>543.400000</ele>
        <time>2009-11-20T19:36:51Z</time>
      </trkpt>
      <trkpt lat="50.601128" lon="6.171791">
        <ele>543.200000</ele>
        <time>2009-11-20T19:36:58Z</time>
      </trkpt>
      <trkpt lat="50.601214" lon="6.171909">
        <ele>543.000000</ele>
        <time>2009-11-20T19:37:09Z</time>
      </trkpt>
      <trkpt lat="50.601070" lon="6.171782">
        <ele>543.400000</ele>
        <time>2009-11-20T19:37:25Z</time>
      </trkpt>
      <trkpt lat="50.601009" lon="6.171769">
        <ele>543.700000</ele>
        <time>2009-11-20T19:37:31Z</time>
      </trkpt>
      <trkpt lat="50.600888" lon="6.171895">
        <ele>544.600000</ele>
        <time>2009-11-20T19:37:45Z</time>
      </trkpt>
      <trkpt lat="50.600522" lon="6.172188">
        <ele>547.000000</ele>
        <time>2009-11-20T19:38:24Z</time>
      </trkpt>
      <trkpt lat="50.600210" lon="6.172504">
        <ele>548.600000</ele>
        <time>2009-11-20T19:39:00Z</time>
      </trkpt>
      <trkpt lat="50.599896" lon="6.172778">
        <ele>549.200000</ele>
        <time>2009-11-20T19:39:34Z</time>
      </trkpt>
      <trkpt lat="50.599582" lon="6.173037">
        <ele>549.900000</ele>
        <time>2009-11-20T19:40:09Z</time>
      </trkpt>
      <trkpt lat="50.599056" lon="6.173559">
        <ele>551.800000</ele>
        <time>2009-11-20T19:41:08Z</time>
      </trkpt>
      <trkpt lat="50.598717" lon="6.173858">
        <ele>553.100000</ele>
        <time>2009-11-20T19:41:46Z</time>
      </trkpt>
      <trkpt lat="50.598747" lon="6.173914">
        <ele>553.100000</ele>
        <time>2009-11-20T19:41:50Z</time>
      </trkpt>
      <trkpt lat="50.598627" lon="6.173969">
        <ele>553.400000</ele>
        <time>2009-11-20T19:42:02Z</time>
      </trkpt>
      <trkpt lat="50.597949" lon="6.174606">
        <ele>555.800000</ele>
        <time>2009-11-20T19:43:18Z</time>
      </trkpt>
      <trkpt lat="50.596989" lon="6.175463">
        <ele>559.900000</ele>
        <time>2009-11-20T19:45:04Z</time>
      </trkpt>
      <trkpt lat="50.596818" lon="6.175651">
        <ele>560.400000</ele>
        <time>2009-11-20T19:45:24Z</time>
      </trkpt>
      <trkpt lat="50.595896" lon="6.176498">
        <ele>562.400000</ele>
        <time>2009-11-20T19:47:07Z</time>
      </trkpt>
      <trkpt lat="50.595738" lon="6.176635">
        <ele>562.500000</ele>
        <time>2009-11-20T19:47:24Z</time>
      </trkpt>
      <trkpt lat="50.595582" lon="6.176812">
        <ele>562.700000</ele>
        <time>2009-11-20T19:47:43Z</time>
      </trkpt>
      <trkpt lat="50.595233" lon="6.177112">
        <ele>562.900000</ele>
        <time>2009-11-20T19:48:21Z</time>
      </trkpt>
      <trkpt lat="50.595069" lon="6.177277">
        <ele>563.000000</ele>
        <time>2009-11-20T19:48:40Z</time>
      </trkpt>
      <trkpt lat="50.594561" lon="6.177708">
        <ele>563.000000</ele>
        <time>2009-11-20T19:49:35Z</time>
      </trkpt>
      <trkpt lat="50.594096" lon="6.178194">
        <ele>562.500000</ele>
        <time>2009-11-20T19:50:29Z</time>
      </trkpt>
      <trkpt lat="50.593949" lon="6.178348">
        <ele>562.100000</ele>
        <time>2009-11-20T19:50:46Z</time>
      </trkpt>
      <trkpt lat="50.593406" lon="6.178905">
        <ele>560.500000</ele>
        <time>2009-11-20T19:51:48Z</time>
      </trkpt>
      <trkpt lat="50.593039" lon="6.179246">
        <ele>560.100000</ele>
        <time>2009-11-20T19:52:29Z</time>
      </trkpt>
      <trkpt lat="50.592883" lon="6.179296">
        <ele>560.100000</ele>
        <time>2009-11-20T19:52:45Z</time>
      </trkpt>
      <trkpt lat="50.592771" lon="6.178972">
        <ele>559.500000</ele>
        <time>2009-11-20T19:53:07Z</time>
      </trkpt>
      <trkpt lat="50.592643" lon="6.178637">
        <ele>558.700000</ele>
        <time>2009-11-20T19:53:31Z</time>
      </trkpt>
      <trkpt lat="50.592260" lon="6.177584">
        <ele>554.500000</ele>
        <time>2009-11-20T19:54:45Z</time>
      </trkpt>
      <trkpt lat="50.592115" lon="6.177141">
        <ele>552.500000</ele>
        <time>2009-11-20T19:55:15Z</time>
      </trkpt>
      <trkpt lat="50.592110" lon="6.177045">
        <ele>552.200000</ele>
        <time>2009-11-20T19:55:21Z</time>
      </trkpt>
      <trkpt lat="50.592044" lon="6.176893">
        <ele>551.600000</ele>
        <time>2009-11-20T19:55:33Z</time>
      </trkpt>
      <trkpt lat="50.591987" lon="6.176576">
        <ele>550.700000</ele>
        <time>2009-11-20T19:55:53Z</time>
      </trkpt>
      <trkpt lat="50.591933" lon="6.176161">
        <ele>550.100000</ele>
        <time>2009-11-20T19:56:19Z</time>
      </trkpt>
      <trkpt lat="50.591903" lon="6.175954">
        <ele>550.000000</ele>
        <time>2009-11-20T19:56:32Z</time>
      </trkpt>
      <trkpt lat="50.591890" lon="6.175913">
        <ele>549.900000</ele>
        <time>2009-11-20T19:56:34Z</time>
      </trkpt>
      <trkpt lat="50.591822" lon="6.175597">
        <ele>548.900000</ele>
        <time>2009-11-20T19:56:55Z</time>
      </trkpt>
      <trkpt lat="50.591752" lon="6.175102">
        <ele>546.900000</ele>
        <time>2009-11-20T19:57:26Z</time>
      </trkpt>
      <trkpt lat="50.591559" lon="6.174048">
        <ele>544.500000</ele>
        <time>2009-11-20T19:58:33Z</time>
      </trkpt>
      <trkpt lat="50.591555" lon="6.173957">
        <ele>544.400000</ele>
        <time>2009-11-20T19:58:38Z</time>
      </trkpt>
      <trkpt lat="50.591436" lon="6.173235">
        <ele>542.800000</ele>
        <time>2009-11-20T19:59:24Z</time>
      </trkpt>
      <trkpt lat="50.591398" lon="6.172909">
        <ele>542.100000</ele>
        <time>2009-11-20T19:59:44Z</time>
      </trkpt>
      <trkpt lat="50.591279" lon="6.172079">
        <ele>540.600000</ele>
        <time>2009-11-20T20:00:36Z</time>
      </trkpt>
      <trkpt lat="50.591269" lon="6.171878">
        <ele>540.000000</ele>
        <time>2009-11-20T20:00:48Z</time>
      </trkpt>
      <trkpt lat="50.591138" lon="6.171458">
        <ele>539.300000</ele>
        <time>2009-11-20T20:01:17Z</time>
      </trkpt>
      <trkpt lat="50.591097" lon="6.171255">
        <ele>539.100000</ele>
        <time>2009-11-20T20:01:30Z</time>
      </trkpt>
      <trkpt lat="50.591009" lon="6.170865">
        <ele>538.700000</ele>
        <time>2009-11-20T20:01:55Z</time>
      </trkpt>
      <trkpt lat="50.590990" lon="6.170680">
        <ele>538.400000</ele>
        <time>2009-11-20T20:02:07Z</time>
      </trkpt>
      <trkpt lat="50.590956" lon="6.170533">
        <ele>538.300000</ele>
        <time>2009-11-20T20:02:16Z</time>
      </trkpt>
      <trkpt lat="50.590884" lon="6.170404">
        <ele>538.400000</ele>
        <time>2009-11-20T20:02:27Z</time>
      </trkpt>
      <trkpt lat="50.590784" lon="6.170301">
        <ele>538.600000</ele>
        <time>2009-11-20T20:02:38Z</time>
      </trkpt>
      <trkpt lat="50.590575" lon="6.170695">
        <ele>540.100000</ele>
        <time>2009-11-20T20:03:09Z</time>
      </trkpt>
      <trkpt lat="50.590484" lon="6.170811">
        <ele>540.700000</ele>
        <time>2009-11-20T20:03:21Z</time>
      </trkpt>
      <trkpt lat="50.590152" lon="6.171333">
        <ele>542.500000</ele>
        <time>2009-11-20T20:04:06Z</time>
      </trkpt>
      <trkpt lat="50.590098" lon="6.171463">
        <ele>542.800000</ele>
        <time>2009-11-20T20:04:15Z</time>
      </trkpt>
      <trkpt lat="50.589967" lon="6.171711">
        <ele>543.400000</ele>
        <time>2009-11-20T20:04:35Z</time>
      </trkpt>
      <trkpt lat="50.589647" lon="6.172181">
        <ele>545.000000</ele>
        <time>2009-11-20T20:05:17Z</time>
      </trkpt>
      <trkpt lat="50.589403" lon="6.172578">
        <ele>545.600000</ele>
        <time>2009-11-20T20:05:51Z</time>
      </trkpt>
      <trkpt lat="50.588511" lon="6.173880">
        <ele>549.400000</ele>
        <time>2009-11-20T20:07:48Z</time>
      </trkpt>
      <trkpt lat="50.588245" lon="6.174365">
        <ele>550.900000</ele>
        <time>2009-11-20T20:08:27Z</time>
      </trkpt>
      <trkpt lat="50.587903" lon="6.174772">
        <ele>553.100000</ele>
        <time>2009-11-20T20:09:08Z</time>
      </trkpt>
      <trkpt lat="50.587769" lon="6.174956">
        <ele>553.400000</ele>
        <time>2009-11-20T20:09:25Z</time>
      </trkpt>
      <trkpt lat="50.587471" lon="6.175429">
        <ele>554.300000</ele>
        <time>2009-11-20T20:10:06Z</time>
      </trkpt>
      <trkpt lat="50.586518" lon="6.176869">
        <ele>558.800000</ele>
        <time>2009-11-20T20:12:13Z</time>
      </trkpt>
      <trkpt lat="50.586303" lon="6.177105">
        <ele>559.500000</ele>
        <time>2009-11-20T20:12:38Z</time>
      </trkpt>
      <trkpt lat="50.585569" lon="6.177753">
        <ele>562.100000</ele>
        <time>2009-11-20T20:13:59Z</time>
      </trkpt>
      <trkpt lat="50.584882" lon="6.178223">
        <ele>565.400000</ele>
        <time>2009-11-20T20:15:11Z</time>
      </trkpt>
      <trkpt lat="50.584361" lon="6.178621">
        <ele>567.100000</ele>
        <time>2009-11-20T20:16:07Z</time>
      </trkpt>
      <trkpt lat="50.583419" lon="6.179560">
        <ele>568.900000</ele>
        <time>2009-11-20T20:17:54Z</time>
      </trkpt>
      <trkpt lat="50.583208" lon="6.179675">
        <ele>569.600000</ele>
        <time>2009-11-20T20:18:16Z</time>
      </trkpt>
      <trkpt lat="50.582377" lon="6.180324">
        <ele>571.500000</ele>
        <time>2009-11-20T20:19:45Z</time>
      </trkpt>
      <trkpt lat="50.582095" lon="6.180475">
        <ele>571.900000</ele>
        <time>2009-11-20T20:20:13Z</time>
      </trkpt>
      <trkpt lat="50.581571" lon="6.180682">
        <ele>573.000000</ele>
        <time>2009-11-20T20:21:05Z</time>
      </trkpt>
      <trkpt lat="50.581245" lon="6.180771">
        <ele>574.300000</ele>
        <time>2009-11-20T20:21:37Z</time>
      </trkpt>
      <trkpt lat="50.581028" lon="6.180708">
        <ele>575.500000</ele>
        <time>2009-11-20T20:21:58Z</time>
      </trkpt>
      <trkpt lat="50.580837" lon="6.180798">
        <ele>576.200000</ele>
        <time>2009-11-20T20:22:18Z</time>
      </trkpt>
      <trkpt lat="50.580392" lon="6.180848">
        <ele>577.500000</ele>
        <time>2009-11-20T20:23:01Z</time>
      </trkpt>
      <trkpt lat="50.579963" lon="6.180983">
        <ele>578.300000</ele>
        <time>2009-11-20T20:23:43Z</time>
      </trkpt>
      <trkpt lat="50.579753" lon="6.181005">
        <ele>579.100000</ele>
        <time>2009-11-20T20:24:03Z</time>
      </trkpt>
      <trkpt lat="50.579452" lon="6.181080">
        <ele>580.300000</ele>
        <time>2009-11-20T20:24:32Z</time>
      </trkpt>
      <trkpt lat="50.579227" lon="6.181084">
        <ele>580.900000</ele>
        <time>2009-11-20T20:24:54Z</time>
      </trkpt>
      <trkpt lat="50.578881" lon="6.181014">
        <ele>581.600000</ele>
        <time>2009-11-20T20:25:27Z</time>
      </trkpt>
      <trkpt lat="50.578649" lon="6.180889">
        <ele>581.800000</ele>
        <time>2009-11-20T20:25:51Z</time>
      </trkpt>
      <trkpt lat="50.578476" lon="6.180769">
        <ele>582.300000</ele>
        <time>2009-11-20T20:26:09Z</time>
      </trkpt>
      <trkpt lat="50.578227" lon="6.180617">
        <ele>583.100000</ele>
        <time>2009-11-20T20:26:35Z</time>
      </trkpt>
      <trkpt lat="50.578012" lon="6.180510">
        <ele>583.800000</ele>
        <time>2009-11-20T20:26:57Z</time>
      </trkpt>
      <trkpt lat="50.577702" lon="6.180701">
        <ele>584.300000</ele>
        <time>2009-11-20T20:27:28Z</time>
      </trkpt>
      <trkpt lat="50.577712" lon="6.181477">
        <ele>583.000000</ele>
        <time>2009-11-20T20:28:16Z</time>
      </trkpt>
      <trkpt lat="50.577506" lon="6.181517">
        <ele>583.500000</ele>
        <time>2009-11-20T20:28:36Z</time>
      </trkpt>
      <trkpt lat="50.577091" lon="6.181076">
        <ele>585.100000</ele>
        <time>2009-11-20T20:29:24Z</time>
      </trkpt>
      <trkpt lat="50.576545" lon="6.181193">
        <ele>585.900000</ele>
        <time>2009-11-20T20:30:17Z</time>
      </trkpt>
      <trkpt lat="50.575741" lon="6.181411">
        <ele>587.300000</ele>
        <time>2009-11-20T20:31:35Z</time>
      </trkpt>
      <trkpt lat="50.575274" lon="6.181792">
        <ele>587.500000</ele>
        <time>2009-11-20T20:32:26Z</time>
      </trkpt>
      <trkpt lat="50.575129" lon="6.182478">
        <ele>587.100000</ele>
        <time>2009-11-20T20:33:10Z</time>
      </trkpt>
      <trkpt lat="50.574892" lon="6.183099">
        <ele>587.600000</ele>
        <time>2009-11-20T20:33:55Z</time>
      </trkpt>
      <trkpt lat="50.574781" lon="6.184109">
        <ele>589.300000</ele>
        <time>2009-11-20T20:34:57Z</time>
      </trkpt>
      <trkpt lat="50.573906" lon="6.183963">
        <ele>592.900000</ele>
        <time>2009-11-20T20:36:22Z</time>
      </trkpt>
      <trkpt lat="50.573791" lon="6.184408">
        <ele>593.900000</ele>
        <time>2009-11-20T20:36:51Z</time>
      </trkpt>
      <trkpt lat="50.573603" lon="6.184814">
        <ele>595.000000</ele>
        <time>2009-11-20T20:37:22Z</time>
      </trkpt>
      <trkpt lat="50.573201" lon="6.184937">
        <ele>596.300000</ele>
        <time>2009-11-20T20:38:01Z</time>
      </trkpt>
      <trkpt lat="50.572813" lon="6.184861">
        <ele>598.000000</ele>
        <time>2009-11-20T20:38:39Z</time>
      </trkpt>
      <trkpt lat="50.572391" lon="6.184915">
        <ele>600.000000</ele>
        <time>2009-11-20T20:39:19Z</time>
      </trkpt>
      <trkpt lat="50.572192" lon="6.184870">
        <ele>600.800000</ele>
        <time>2009-11-20T20:39:39Z</time>
      </trkpt>
      <trkpt lat="50.571903" lon="6.184436">
        <ele>601.200000</ele>
        <time>2009-11-20T20:40:17Z</time>
      </trkpt>
      <trkpt lat="50.571574" lon="6.184215">
        <ele>601.600000</ele>
        <time>2009-11-20T20:40:52Z</time>
      </trkpt>
      <trkpt lat="50.571199" lon="6.184308">
        <ele>602.600000</ele>
        <time>2009-11-20T20:41:28Z</time>
      </trkpt>
      <trkpt lat="50.570718" lon="6.184506">
        <ele>604.500000</ele>
        <time>2009-11-20T20:42:16Z</time>
      </trkpt>
      <trkpt lat="50.570375" lon="6.184456">
        <ele>606.100000</ele>
        <time>2009-11-20T20:42:49Z</time>
      </trkpt>
      <trkpt lat="50.570076" lon="6.183641">
        <ele>607.300000</ele>
        <time>2009-11-20T20:43:47Z</time>
      </trkpt>
      <trkpt lat="50.569940" lon="6.182844">
        <ele>607.000000</ele>
        <time>2009-11-20T20:44:37Z</time>
      </trkpt>
      <trkpt lat="50.569895" lon="6.182099">
        <ele>606.900000</ele>
        <time>2009-11-20T20:45:23Z</time>
      </trkpt>
      <trkpt lat="50.569600" lon="6.181777">
        <ele>607.500000</ele>
        <time>2009-11-20T20:45:57Z</time>
      </trkpt>
      <trkpt lat="50.569560" lon="6.181243">
        <ele>607.200000</ele>
        <time>2009-11-20T20:46:30Z</time>
      </trkpt>
      <trkpt lat="50.569561" lon="6.180551">
        <ele>607.600000</ele>
        <time>2009-11-20T20:47:12Z</time>
      </trkpt>
      <trkpt lat="50.569054" lon="6.180426">
        <ele>608.900000</ele>
        <time>2009-11-20T20:48:02Z</time>
      </trkpt>
      <trkpt lat="50.568266" lon="6.180530">
        <ele>611.700000</ele>
        <time>2009-11-20T20:49:18Z</time>
      </trkpt>
    </trkseg>
  </trk>

</gpx>
